Terminal Aerodrome Forecast
Issued by NWS

Home | Current Version | Previous Version | Text Only | Print | Product List | Glossary On
Versions: 1 2 3 4 5 6 7 8 9 10 11 12 13 14 15 16 17 18
000
FTUS46 KSTO 071152
TAFMHR
TAF
KMHR 071152Z 0712/0812 VRB04KT P6SM SCT250
     FM071300 34004KT 5SM BR SCT002
      TEMPO 0714/0717 2SM BCFG BKN002
     FM071900 33004KT P6SM OVC150
     FM080300 07003KT 4SM -RA OVC050
     FM080700 12006KT 6SM -RA OVC025=

USA.gov is the U.S. government's official web portal to all federal, state and local government web resources and services.